Terminal Aerodrome Forecast
Issued by NWS Buffalo, NY

Home | Current Version | Previous Version | Text Only | Print | Product List | Glossary On
Versions: 1 2 3 4 5 6 7 8 9 10 11 12 13 14 15 16 17 18 19 20 21 22 23 24
000
FTUS41 KBUF 190529
TAFBUF
TAF
KBUF 190529Z 1906/2006 20008KT P6SM SKC WS020/23035KT
     FM190800 21010G16KT P6SM SKC WS020/24035KT
     FM191400 22018G26KT P6SM SCT250
     FM191800 24020G30KT P6SM BKN050
     FM192300 25012KT P6SM SCT050
     FM200200 26007KT P6SM SKC=

USA.gov is the U.S. government's official web portal to all federal, state and local government web resources and services.